sensor_id;sensor_type;location;lat;lon;timestamp;temperature;humidity
9861;DHT22;4969;52.304;4.968;2022-07-22T00:01:56;18.10;72.41
9861;DHT22;4969;52.304;4.968;2022-07-22T00:04:23;18.00;72.79
9861;DHT22;4969;52.304;4.968;2022-07-22T00:06:51;18.03;73.16
9861;DHT22;4969;52.304;4.968;2022-07-22T00:09:17;18.10;72.83
9861;DHT22;4969;52.304;4.968;2022-07-22T00:11:44;18.00;72.75
9861;DHT22;4969;52.304;4.968;2022-07-22T00:14:10;18.07;72.90
9861;DHT22;4969;52.304;4.968;2022-07-22T00:16:38;18.20;74.79
9861;DHT22;4969;52.304;4.968;2022-07-22T00:19:04;18.31;71.94
9861;DHT22;4969;52.304;4.968;2022-07-22T00:21:31;18.06;72.26
9861;DHT22;4969;52.304;4.968;2022-07-22T00:23:59;18.16;72.26
9861;DHT22;4969;52.304;4.968;2022-07-22T00:26:25;18.31;74.20
9861;DHT22;4969;52.304;4.968;2022-07-22T00:28:52;18.30;72.69
9861;DHT22;4969;52.304;4.968;2022-07-22T00:31:18;18.17;72.12
9861;DHT22;4969;52.304;4.968;2022-07-22T00:33:45;17.97;72.64
9861;DHT22;4969;52.304;4.968;2022-07-22T00:36:12;17.96;73.15
9861;DHT22;4969;52.304;4.968;2022-07-22T00:38:38;18.65;70.88
9861;DHT22;4969;52.304;4.968;2022-07-22T00:41:06;18.33;71.56
9861;DHT22;4969;52.304;4.968;2022-07-22T00:43:49;18.45;73.42
9861;DHT22;4969;52.304;4.968;2022-07-22T00:46:16;18.27;71.82
9861;DHT22;4969;52.304;4.968;2022-07-22T00:48:43;18.00;72.68
9861;DHT22;4969;52.304;4.968;2022-07-22T00:51:09;17.83;73.08
9861;DHT22;4969;52.304;4.968;2022-07-22T00:53:36;17.75;73.50
9861;DHT22;4969;52.304;4.968;2022-07-22T00:56:03;17.89;73.85
9861;DHT22;4969;52.304;4.968;2022-07-22T00:58:31;18.12;72.78
9861;DHT22;4969;52.304;4.968;2022-07-22T01:00:58;17.96;73.20
9861;DHT22;4969;52.304;4.968;2022-07-22T01:03:24;17.79;73.60
9861;DHT22;4969;52.304;4.968;2022-07-22T01:05:51;17.61;74.05
9861;DHT22;4969;52.304;4.968;2022-07-22T01:08:18;17.61;74.25
9861;DHT22;4969;52.304;4.968;2022-07-22T01:10:44;17.48;74.73
9861;DHT22;4969;52.304;4.968;2022-07-22T01:13:11;17.96;74.19
9861;DHT22;4969;52.304;4.968;2022-07-22T01:15:39;17.96;73.69
9861;DHT22;4969;52.304;4.968;2022-07-22T01:18:05;18.03;73.39
9861;DHT22;4969;52.304;4.968;2022-07-22T01:20:34;18.20;73.99
9861;DHT22;4969;52.304;4.968;2022-07-22T01:23:00;17.93;72.76
9861;DHT22;4969;52.304;4.968;2022-07-22T01:25:27;17.81;73.60
9861;DHT22;4969;52.304;4.968;2022-07-22T01:27:54;17.68;74.15
9861;DHT22;4969;52.304;4.968;2022-07-22T01:30:20;17.59;74.42
9861;DHT22;4969;52.304;4.968;2022-07-22T01:32:47;17.93;74.00
9861;DHT22;4969;52.304;4.968;2022-07-22T01:35:13;18.51;73.63
9861;DHT22;4969;52.304;4.968;2022-07-22T01:37:41;18.90;71.70
9861;DHT22;4969;52.304;4.968;2022-07-22T01:40:09;19.03;71.47
9861;DHT22;4969;52.304;4.968;2022-07-22T01:42:35;19.11;70.46
9861;DHT22;4969;52.304;4.968;2022-07-22T01:45:03;19.10;70.53
9861;DHT22;4969;52.304;4.968;2022-07-22T01:47:29;19.37;69.88
9861;DHT22;4969;52.304;4.968;2022-07-22T01:49:56;19.52;69.56
9861;DHT22;4969;52.304;4.968;2022-07-22T01:52:22;19.75;68.67
9861;DHT22;4969;52.304;4.968;2022-07-22T01:54:50;19.93;67.47
9861;DHT22;4969;52.304;4.968;2022-07-22T01:57:17;19.95;67.85
9861;DHT22;4969;52.304;4.968;2022-07-22T01:59:43;20.02;68.09
9861;DHT22;4969;52.304;4.968;2022-07-22T02:02:10;20.16;67.74
9861;DHT22;4969;52.304;4.968;2022-07-22T02:04:36;20.07;67.70
9861;DHT22;4969;52.304;4.968;2022-07-22T02:07:03;20.23;66.99
9861;DHT22;4969;52.304;4.968;2022-07-22T02:09:29;20.12;67.16
9861;DHT22;4969;52.304;4.968;2022-07-22T02:11:57;20.16;67.12
9861;DHT22;4969;52.304;4.968;2022-07-22T02:14:24;20.23;67.34
9861;DHT22;4969;52.304;4.968;2022-07-22T02:16:50;20.31;66.76
9861;DHT22;4969;52.304;4.968;2022-07-22T02:19:17;20.55;65.81
9861;DHT22;4969;52.304;4.968;2022-07-22T02:21:43;20.38;64.97
9861;DHT22;4969;52.304;4.968;2022-07-22T02:24:10;20.44;65.49
9861;DHT22;4969;52.304;4.968;2022-07-22T02:26:37;20.47;65.14
9861;DHT22;4969;52.304;4.968;2022-07-22T02:29:06;20.48;65.44
9861;DHT22;4969;52.304;4.968;2022-07-22T02:31:32;20.44;65.17
9861;DHT22;4969;52.304;4.968;2022-07-22T02:33:59;20.18;65.74
9861;DHT22;4969;52.304;4.968;2022-07-22T02:36:25;19.85;66.46
9861;DHT22;4969;52.304;4.968;2022-07-22T02:38:52;20.12;66.31
9861;DHT22;4969;52.304;4.968;2022-07-22T02:41:18;20.26;66.05
9861;DHT22;4969;52.304;4.968;2022-07-22T02:43:45;20.38;65.68
9861;DHT22;4969;52.304;4.968;2022-07-22T02:46:13;20.55;64.32
9861;DHT22;4969;52.304;4.968;2022-07-22T02:48:39;20.52;64.53
9861;DHT22;4969;52.304;4.968;2022-07-22T02:51:06;20.31;64.48
9861;DHT22;4969;52.304;4.968;2022-07-22T02:53:32;20.41;65.29
9861;DHT22;4969;52.304;4.968;2022-07-22T02:55:59;20.62;64.77
9861;DHT22;4969;52.304;4.968;2022-07-22T02:58:25;20.72;64.29
9861;DHT22;4969;52.304;4.968;2022-07-22T03:00:52;20.82;64.00
9861;DHT22;4969;52.304;4.968;2022-07-22T03:03:20;20.89;63.77
9861;DHT22;4969;52.304;4.968;2022-07-22T03:05:46;20.81;63.98
9861;DHT22;4969;52.304;4.968;2022-07-22T03:08:13;20.92;63.42
9861;DHT22;4969;52.304;4.968;2022-07-22T03:10:39;20.88;63.37
9861;DHT22;4969;52.304;4.968;2022-07-22T03:13:06;20.89;63.47
9861;DHT22;4969;52.304;4.968;2022-07-22T03:15:32;20.93;63.29
9861;DHT22;4969;52.304;4.968;2022-07-22T03:17:59;20.92;63.07
9861;DHT22;4969;52.304;4.968;2022-07-22T03:20:27;20.95;62.85
9861;DHT22;4969;52.304;4.968;2022-07-22T03:22:53;20.86;63.16
9861;DHT22;4969;52.304;4.968;2022-07-22T03:25:20;20.90;62.80
9861;DHT22;4969;52.304;4.968;2022-07-22T03:27:46;20.86;63.07
9861;DHT22;4969;52.304;4.968;2022-07-22T03:30:13;20.86;62.95
9861;DHT22;4969;52.304;4.968;2022-07-22T03:32:40;20.90;62.72
9861;DHT22;4969;52.304;4.968;2022-07-22T03:35:10;20.82;62.57
9861;DHT22;4969;52.304;4.968;2022-07-22T03:37:37;20.90;62.52
9861;DHT22;4969;52.304;4.968;2022-07-22T03:40:05;20.98;62.23
9861;DHT22;4969;52.304;4.968;2022-07-22T03:42:32;20.99;62.36
9861;DHT22;4969;52.304;4.968;2022-07-22T03:44:59;20.89;62.08
9861;DHT22;4969;52.304;4.968;2022-07-22T03:47:25;20.85;62.46
9861;DHT22;4969;52.304;4.968;2022-07-22T03:49:52;21.02;61.68
9861;DHT22;4969;52.304;4.968;2022-07-22T03:52:19;21.03;61.54
9861;DHT22;4969;52.304;4.968;2022-07-22T03:54:47;21.06;61.40
9861;DHT22;4969;52.304;4.968;2022-07-22T03:57:13;20.99;61.66
9861;DHT22;4969;52.304;4.968;2022-07-22T03:59:39;21.03;61.28
9861;DHT22;4969;52.304;4.968;2022-07-22T04:02:06;21.02;61.33
9861;DHT22;4969;52.304;4.968;2022-07-22T04:04:33;20.90;61.48
9861;DHT22;4969;52.304;4.968;2022-07-22T04:06:59;20.71;61.44
9861;DHT22;4969;52.304;4.968;2022-07-22T04:09:26;20.81;61.51
9861;DHT22;4969;52.304;4.968;2022-07-22T04:11:53;20.83;61.60
9861;DHT22;4969;52.304;4.968;2022-07-22T04:14:20;20.92;61.43
9861;DHT22;4969;52.304;4.968;2022-07-22T04:16:47;20.99;61.24
9861;DHT22;4969;52.304;4.968;2022-07-22T04:19:14;20.93;61.36
9861;DHT22;4969;52.304;4.968;2022-07-22T04:21:41;20.99;61.15
9861;DHT22;4969;52.304;4.968;2022-07-22T04:24:08;21.10;60.86
9861;DHT22;4969;52.304;4.968;2022-07-22T04:26:34;21.00;60.64
9861;DHT22;4969;52.304;4.968;2022-07-22T04:29:03;20.95;61.01
9861;DHT22;4969;52.304;4.968;2022-07-22T04:31:30;20.96;61.09
9861;DHT22;4969;52.304;4.968;2022-07-22T04:33:57;20.98;61.06
9861;DHT22;4969;52.304;4.968;2022-07-22T04:36:24;20.99;61.06
9861;DHT22;4969;52.304;4.968;2022-07-22T04:38:51;20.67;61.35
9861;DHT22;4969;52.304;4.968;2022-07-22T04:41:17;20.24;62.30
9861;DHT22;4969;52.304;4.968;2022-07-22T04:43:44;19.96;62.84
9861;DHT22;4969;52.304;4.968;2022-07-22T04:46:12;19.86;63.44
9861;DHT22;4969;52.304;4.968;2022-07-22T04:48:38;19.72;63.62
9861;DHT22;4969;52.304;4.968;2022-07-22T04:51:05;19.69;64.02
9861;DHT22;4969;52.304;4.968;2022-07-22T04:53:32;19.66;64.16
9861;DHT22;4969;52.304;4.968;2022-07-22T04:55:58;19.35;63.65
9861;DHT22;4969;52.304;4.968;2022-07-22T04:58:25;19.24;63.86
9861;DHT22;4969;52.304;4.968;2022-07-22T05:00:51;19.16;64.36
9861;DHT22;4969;52.304;4.968;2022-07-22T05:03:19;18.97;64.14
9861;DHT22;4969;52.304;4.968;2022-07-22T05:05:46;18.92;64.39
9861;DHT22;4969;52.304;4.968;2022-07-22T05:08:12;18.85;64.86
9861;DHT22;4969;52.304;4.968;2022-07-22T05:10:40;18.54;65.17
9861;DHT22;4969;52.304;4.968;2022-07-22T05:13:06;18.59;65.86
9861;DHT22;4969;52.304;4.968;2022-07-22T05:15:33;18.57;65.69
9861;DHT22;4969;52.304;4.968;2022-07-22T05:18:00;18.58;66.11
9861;DHT22;4969;52.304;4.968;2022-07-22T05:20:28;18.61;66.13
9861;DHT22;4969;52.304;4.968;2022-07-22T05:22:54;18.40;66.38
9861;DHT22;4969;52.304;4.968;2022-07-22T05:25:21;18.54;66.61
9861;DHT22;4969;52.304;4.968;2022-07-22T05:27:54;18.88;66.54
9861;DHT22;4969;52.304;4.968;2022-07-22T05:30:21;19.02;65.43
9861;DHT22;4969;52.304;4.968;2022-07-22T05:32:48;18.79;64.81
9861;DHT22;4969;52.304;4.968;2022-07-22T05:35:14;18.61;65.44
9861;DHT22;4969;52.304;4.968;2022-07-22T05:37:43;18.86;66.21
9861;DHT22;4969;52.304;4.968;2022-07-22T05:40:10;18.62;64.68
9861;DHT22;4969;52.304;4.968;2022-07-22T05:42:36;18.58;65.34
9861;DHT22;4969;52.304;4.968;2022-07-22T05:45:03;18.51;65.23
9861;DHT22;4969;52.304;4.968;2022-07-22T05:47:30;18.48;65.39
9861;DHT22;4969;52.304;4.968;2022-07-22T05:49:57;18.61;65.59
9861;DHT22;4969;52.304;4.968;2022-07-22T05:52:23;18.57;64.83
9861;DHT22;4969;52.304;4.968;2022-07-22T05:54:51;18.50;65.02
9861;DHT22;4969;52.304;4.968;2022-07-22T05:57:18;18.62;66.03
9861;DHT22;4969;52.304;4.968;2022-07-22T05:59:45;18.68;64.09
9861;DHT22;4969;52.304;4.968;2022-07-22T06:02:11;18.65;64.69
9861;DHT22;4969;52.304;4.968;2022-07-22T06:04:38;18.44;63.92
9861;DHT22;4969;52.304;4.968;2022-07-22T06:07:04;18.37;64.78
9861;DHT22;4969;52.304;4.968;2022-07-22T06:09:31;18.35;65.28
9861;DHT22;4969;52.304;4.968;2022-07-22T06:11:59;18.45;65.26
9861;DHT22;4969;52.304;4.968;2022-07-22T06:14:26;18.37;65.16
9861;DHT22;4969;52.304;4.968;2022-07-22T06:16:52;18.35;64.20
9861;DHT22;4969;52.304;4.968;2022-07-22T06:19:19;18.12;64.43
9861;DHT22;4969;52.304;4.968;2022-07-22T06:21:46;18.20;64.65
9861;DHT22;4969;52.304;4.968;2022-07-22T06:24:12;18.18;63.61
9861;DHT22;4969;52.304;4.968;2022-07-22T06:26:39;18.24;64.22
9861;DHT22;4969;52.304;4.968;2022-07-22T06:29:07;18.13;63.49
9861;DHT22;4969;52.304;4.968;2022-07-22T06:31:33;18.31;64.19
9861;DHT22;4969;52.304;4.968;2022-07-22T06:34:00;18.57;64.47
9861;DHT22;4969;52.304;4.968;2022-07-22T06:36:30;18.62;64.34
9861;DHT22;4969;52.304;4.968;2022-07-22T06:38:57;18.92;62.43
9861;DHT22;4969;52.304;4.968;2022-07-22T06:41:24;18.43;62.07
9861;DHT22;4969;52.304;4.968;2022-07-22T06:43:50;18.38;63.52
9861;DHT22;4969;52.304;4.968;2022-07-22T06:46:18;18.58;63.84
9861;DHT22;4969;52.304;4.968;2022-07-22T06:48:45;18.33;63.20
9861;DHT22;4969;52.304;4.968;2022-07-22T06:51:11;18.37;63.70
9861;DHT22;4969;52.304;4.968;2022-07-22T06:53:38;18.17;63.31
9861;DHT22;4969;52.304;4.968;2022-07-22T06:56:05;18.67;65.03
9861;DHT22;4969;52.304;4.968;2022-07-22T06:58:32;18.50;63.47
9861;DHT22;4969;52.304;4.968;2022-07-22T07:00:58;18.24;62.51
9861;DHT22;4969;52.304;4.968;2022-07-22T07:03:26;18.37;61.29
9861;DHT22;4969;52.304;4.968;2022-07-22T07:05:52;18.45;64.18
9861;DHT22;4969;52.304;4.968;2022-07-22T07:08:19;18.33;62.18
9861;DHT22;4969;52.304;4.968;2022-07-22T07:10:46;18.34;61.55
9861;DHT22;4969;52.304;4.968;2022-07-22T07:13:12;18.40;62.14
9861;DHT22;4969;52.304;4.968;2022-07-22T07:15:39;18.41;61.39
9861;DHT22;4969;52.304;4.968;2022-07-22T07:18:05;18.40;61.64
9861;DHT22;4969;52.304;4.968;2022-07-22T07:20:33;18.33;62.24
9861;DHT22;4969;52.304;4.968;2022-07-22T07:23:00;18.37;62.57
9861;DHT22;4969;52.304;4.968;2022-07-22T07:25:27;18.38;61.14
9861;DHT22;4969;52.304;4.968;2022-07-22T07:27:54;18.30;60.36
9861;DHT22;4969;52.304;4.968;2022-07-22T07:30:20;18.43;60.79
9861;DHT22;4969;52.304;4.968;2022-07-22T07:32:47;18.57;60.26
9861;DHT22;4969;52.304;4.968;2022-07-22T07:35:14;18.52;60.28
9861;DHT22;4969;52.304;4.968;2022-07-22T07:37:42;18.54;59.78
9861;DHT22;4969;52.304;4.968;2022-07-22T07:40:09;18.47;60.80
9861;DHT22;4969;52.304;4.968;2022-07-22T07:42:36;18.67;62.37
9861;DHT22;4969;52.304;4.968;2022-07-22T07:45:03;18.73;61.77
9861;DHT22;4969;52.304;4.968;2022-07-22T07:47:30;18.79;60.12
9861;DHT22;4969;52.304;4.968;2022-07-22T07:49:57;19.02;60.00
9861;DHT22;4969;52.304;4.968;2022-07-22T07:52:25;19.19;61.41
9861;DHT22;4969;52.304;4.968;2022-07-22T07:54:53;19.17;59.14
9861;DHT22;4969;52.304;4.968;2022-07-22T07:57:21;18.83;59.67
9861;DHT22;4969;52.304;4.968;2022-07-22T07:59:48;18.90;60.42
9861;DHT22;4969;52.304;4.968;2022-07-22T08:02:14;18.93;60.06
9861;DHT22;4969;52.304;4.968;2022-07-22T08:04:41;19.31;60.17
9861;DHT22;4969;52.304;4.968;2022-07-22T08:07:07;19.22;59.34
9861;DHT22;4969;52.304;4.968;2022-07-22T08:09:34;18.93;59.61
9861;DHT22;4969;52.304;4.968;2022-07-22T08:12:04;18.90;59.60
9861;DHT22;4969;52.304;4.968;2022-07-22T08:14:31;18.85;58.89
9861;DHT22;4969;52.304;4.968;2022-07-22T08:16:58;19.06;58.64
9861;DHT22;4969;52.304;4.968;2022-07-22T08:19:25;18.92;58.45
9861;DHT22;4969;52.304;4.968;2022-07-22T08:21:51;18.88;58.86
9861;DHT22;4969;52.304;4.968;2022-07-22T08:24:18;18.80;58.59
9861;DHT22;4969;52.304;4.968;2022-07-22T08:26:44;18.73;60.30
9861;DHT22;4969;52.304;4.968;2022-07-22T08:29:12;18.88;59.62
9861;DHT22;4969;52.304;4.968;2022-07-22T08:31:39;18.95;60.13
9861;DHT22;4969;52.304;4.968;2022-07-22T08:34:05;18.96;58.58
9861;DHT22;4969;52.304;4.968;2022-07-22T08:36:32;18.92;58.23
9861;DHT22;4969;52.304;4.968;2022-07-22T08:38:59;18.95;58.32
9861;DHT22;4969;52.304;4.968;2022-07-22T08:41:25;18.90;58.01
9861;DHT22;4969;52.304;4.968;2022-07-22T08:43:52;19.07;58.71
9861;DHT22;4969;52.304;4.968;2022-07-22T08:46:20;19.13;57.93
9861;DHT22;4969;52.304;4.968;2022-07-22T08:48:47;19.22;57.49
9861;DHT22;4969;52.304;4.968;2022-07-22T08:51:13;19.17;58.50
9861;DHT22;4969;52.304;4.968;2022-07-22T08:53:40;19.28;56.66
9861;DHT22;4969;52.304;4.968;2022-07-22T08:56:07;19.35;56.33
9861;DHT22;4969;52.304;4.968;2022-07-22T08:58:33;19.83;58.76
9861;DHT22;4969;52.304;4.968;2022-07-22T09:01:04;20.13;55.10
9861;DHT22;4969;52.304;4.968;2022-07-22T09:03:32;19.99;56.27
9861;DHT22;4969;52.304;4.968;2022-07-22T09:05:59;20.31;53.96
9861;DHT22;4969;52.304;4.968;2022-07-22T09:08:26;20.26;56.47
9861;DHT22;4969;52.304;4.968;2022-07-22T09:10:53;20.67;55.10
9861;DHT22;4969;52.304;4.968;2022-07-22T09:13:20;20.78;55.12
9861;DHT22;4969;52.304;4.968;2022-07-22T09:15:51;20.54;53.66
9861;DHT22;4969;52.304;4.968;2022-07-22T09:18:18;20.21;54.47
9861;DHT22;4969;52.304;4.968;2022-07-22T09:20:46;19.99;54.51
9861;DHT22;4969;52.304;4.968;2022-07-22T09:23:15;20.38;55.45
9861;DHT22;4969;52.304;4.968;2022-07-22T09:25:43;20.20;54.50
9861;DHT22;4969;52.304;4.968;2022-07-22T09:28:12;20.07;54.97
9861;DHT22;4969;52.304;4.968;2022-07-22T09:30:42;19.92;54.93
9861;DHT22;4969;52.304;4.968;2022-07-22T09:33:11;19.85;55.92
9861;DHT22;4969;52.304;4.968;2022-07-22T09:35:44;19.87;56.01
9861;DHT22;4969;52.304;4.968;2022-07-22T09:38:15;19.83;55.31
9861;DHT22;4969;52.304;4.968;2022-07-22T09:40:43;19.83;54.32
9861;DHT22;4969;52.304;4.968;2022-07-22T09:43:11;20.07;53.42
9861;DHT22;4969;52.304;4.968;2022-07-22T09:45:46;19.97;54.96
9861;DHT22;4969;52.304;4.968;2022-07-22T09:48:14;20.07;54.11
9861;DHT22;4969;52.304;4.968;2022-07-22T09:51:05;20.09;54.09
9861;DHT22;4969;52.304;4.968;2022-07-22T09:53:36;20.23;55.10
9861;DHT22;4969;52.304;4.968;2022-07-22T09:56:05;20.12;54.57
9861;DHT22;4969;52.304;4.968;2022-07-22T09:58:32;20.10;53.71
9861;DHT22;4969;52.304;4.968;2022-07-22T10:01:00;20.17;54.82
9861;DHT22;4969;52.304;4.968;2022-07-22T10:03:30;20.27;54.58
9861;DHT22;4969;52.304;4.968;2022-07-22T10:05:58;20.14;53.78
9861;DHT22;4969;52.304;4.968;2022-07-22T10:08:27;20.28;54.44
9861;DHT22;4969;52.304;4.968;2022-07-22T10:11:01;20.54;53.35
9861;DHT22;4969;52.304;4.968;2022-07-22T10:13:32;20.51;53.66
9861;DHT22;4969;52.304;4.968;2022-07-22T10:16:08;20.20;54.43
9861;DHT22;4969;52.304;4.968;2022-07-22T10:18:35;20.05;53.75
9861;DHT22;4969;52.304;4.968;2022-07-22T10:21:07;19.99;53.88
9861;DHT22;4969;52.304;4.968;2022-07-22T10:23:34;20.23;55.13
9861;DHT22;4969;52.304;4.968;2022-07-22T10:26:03;20.35;53.97
9861;DHT22;4969;52.304;4.968;2022-07-22T10:28:32;20.26;54.02
9861;DHT22;4969;52.304;4.968;2022-07-22T10:31:19;20.54;55.61
9861;DHT22;4969;52.304;4.968;2022-07-22T10:33:48;21.09;54.11
9861;DHT22;4969;52.304;4.968;2022-07-22T10:36:30;21.07;54.10
9861;DHT22;4969;52.304;4.968;2022-07-22T10:39:06;21.18;53.57
9861;DHT22;4969;52.304;4.968;2022-07-22T10:41:35;21.41;54.45
9861;DHT22;4969;52.304;4.968;2022-07-22T10:44:03;21.41;53.34
9861;DHT22;4969;52.304;4.968;2022-07-22T10:46:50;21.16;52.59
9861;DHT22;4969;52.304;4.968;2022-07-22T10:49:19;21.09;53.84
9861;DHT22;4969;52.304;4.968;2022-07-22T10:52:11;21.34;53.91
9861;DHT22;4969;52.304;4.968;2022-07-22T10:55:16;21.72;53.48
9861;DHT22;4969;52.304;4.968;2022-07-22T10:57:50;21.83;53.05
9861;DHT22;4969;52.304;4.968;2022-07-22T11:00:17;21.88;52.47
9861;DHT22;4969;52.304;4.968;2022-07-22T11:02:44;21.30;52.04
9861;DHT22;4969;52.304;4.968;2022-07-22T11:05:12;20.89;53.13
9861;DHT22;4969;52.304;4.968;2022-07-22T11:07:42;20.88;53.27
9861;DHT22;4969;52.304;4.968;2022-07-22T11:10:12;20.89;53.67
9861;DHT22;4969;52.304;4.968;2022-07-22T11:12:41;20.89;54.37
9861;DHT22;4969;52.304;4.968;2022-07-22T11:15:12;20.89;54.04
9861;DHT22;4969;52.304;4.968;2022-07-22T11:17:39;20.88;53.47
9861;DHT22;4969;52.304;4.968;2022-07-22T11:20:08;20.73;54.14
9861;DHT22;4969;52.304;4.968;2022-07-22T11:22:37;20.98;54.08
9861;DHT22;4969;52.304;4.968;2022-07-22T11:25:09;20.86;53.89
9861;DHT22;4969;52.304;4.968;2022-07-22T11:27:39;20.65;53.97
9861;DHT22;4969;52.304;4.968;2022-07-22T11:30:10;20.78;54.33
9861;DHT22;4969;52.304;4.968;2022-07-22T11:32:43;20.82;54.61
9861;DHT22;4969;52.304;4.968;2022-07-22T11:35:14;20.75;54.39
9861;DHT22;4969;52.304;4.968;2022-07-22T11:37:40;21.07;54.80
9861;DHT22;4969;52.304;4.968;2022-07-22T11:40:09;21.03;53.86
9861;DHT22;4969;52.304;4.968;2022-07-22T11:42:36;20.88;54.52
9861;DHT22;4969;52.304;4.968;2022-07-22T11:45:03;20.88;54.52
9861;DHT22;4969;52.304;4.968;2022-07-22T11:47:31;20.89;54.25
9861;DHT22;4969;52.304;4.968;2022-07-22T11:49:58;21.03;54.57
9861;DHT22;4969;52.304;4.968;2022-07-22T11:52:24;21.21;54.94
9861;DHT22;4969;52.304;4.968;2022-07-22T11:54:51;21.41;54.91
9861;DHT22;4969;52.304;4.968;2022-07-22T11:57:17;21.10;53.99
9861;DHT22;4969;52.304;4.968;2022-07-22T11:59:44;21.17;54.60
9861;DHT22;4969;52.304;4.968;2022-07-22T12:02:12;21.04;53.99
9861;DHT22;4969;52.304;4.968;2022-07-22T12:04:41;21.09;54.30
9861;DHT22;4969;52.304;4.968;2022-07-22T12:07:11;21.11;53.95
9861;DHT22;4969;52.304;4.968;2022-07-22T12:09:38;21.33;54.31
9861;DHT22;4969;52.304;4.968;2022-07-22T12:12:06;21.09;53.48
9861;DHT22;4969;52.304;4.968;2022-07-22T12:14:34;20.86;54.33
9861;DHT22;4969;52.304;4.968;2022-07-22T12:17:04;20.98;54.95
9861;DHT22;4969;52.304;4.968;2022-07-22T12:19:31;21.14;54.56
9861;DHT22;4969;52.304;4.968;2022-07-22T12:22:01;21.23;54.63
9861;DHT22;4969;52.304;4.968;2022-07-22T12:24:31;21.36;54.47
9861;DHT22;4969;52.304;4.968;2022-07-22T12:26:59;21.20;54.34
9861;DHT22;4969;52.304;4.968;2022-07-22T12:29:28;21.20;53.96
9861;DHT22;4969;52.304;4.968;2022-07-22T12:31:57;21.20;54.71
9861;DHT22;4969;52.304;4.968;2022-07-22T12:34:33;21.16;54.47
9861;DHT22;4969;52.304;4.968;2022-07-22T12:37:12;21.00;54.67
9861;DHT22;4969;52.304;4.968;2022-07-22T12:39:39;21.00;54.89
9861;DHT22;4969;52.304;4.968;2022-07-22T12:42:16;20.93;55.48
9861;DHT22;4969;52.304;4.968;2022-07-22T12:44:50;20.89;55.43
9861;DHT22;4969;52.304;4.968;2022-07-22T12:47:17;21.02;55.11
9861;DHT22;4969;52.304;4.968;2022-07-22T12:49:43;21.07;55.70
9861;DHT22;4969;52.304;4.968;2022-07-22T12:52:13;21.16;54.93
9861;DHT22;4969;52.304;4.968;2022-07-22T12:54:40;21.20;54.82
9861;DHT22;4969;52.304;4.968;2022-07-22T12:57:08;21.17;55.67
9861;DHT22;4969;52.304;4.968;2022-07-22T12:59:35;21.34;55.03
9861;DHT22;4969;52.304;4.968;2022-07-22T13:02:03;21.20;55.14
9861;DHT22;4969;52.304;4.968;2022-07-22T13:04:29;21.40;55.46
9861;DHT22;4969;52.304;4.968;2022-07-22T13:06:56;21.44;54.30
9861;DHT22;4969;52.304;4.968;2022-07-22T13:09:24;21.31;53.33
9861;DHT22;4969;52.304;4.968;2022-07-22T13:11:51;21.03;54.54
9861;DHT22;4969;52.304;4.968;2022-07-22T13:14:17;21.11;55.37
9861;DHT22;4969;52.304;4.968;2022-07-22T13:16:44;21.43;55.18
9861;DHT22;4969;52.304;4.968;2022-07-22T13:19:11;21.68;55.28
9861;DHT22;4969;52.304;4.968;2022-07-22T13:21:37;21.96;55.02
9861;DHT22;4969;52.304;4.968;2022-07-22T13:24:04;22.10;54.60
9861;DHT22;4969;52.304;4.968;2022-07-22T13:26:32;21.83;53.78
9861;DHT22;4969;52.304;4.968;2022-07-22T13:29:00;21.71;53.48
9861;DHT22;4969;52.304;4.968;2022-07-22T13:31:26;21.91;54.82
9861;DHT22;4969;52.304;4.968;2022-07-22T13:33:53;21.88;53.12
9861;DHT22;4969;52.304;4.968;2022-07-22T13:36:19;21.54;53.13
9861;DHT22;4969;52.304;4.968;2022-07-22T13:38:48;21.23;53.95
9861;DHT22;4969;52.304;4.968;2022-07-22T13:41:16;21.18;54.65
9861;DHT22;4969;52.304;4.968;2022-07-22T13:43:44;21.14;53.97
9861;DHT22;4969;52.304;4.968;2022-07-22T13:46:11;21.17;54.79
9861;DHT22;4969;52.304;4.968;2022-07-22T13:48:38;21.48;54.83
9861;DHT22;4969;52.304;4.968;2022-07-22T13:51:05;21.75;54.27
9861;DHT22;4969;52.304;4.968;2022-07-22T13:53:32;21.71;53.98
9861;DHT22;4969;52.304;4.968;2022-07-22T13:55:58;21.73;54.15
9861;DHT22;4969;52.304;4.968;2022-07-22T13:58:25;21.78;53.97
9861;DHT22;4969;52.304;4.968;2022-07-22T14:00:53;21.76;54.45
9861;DHT22;4969;52.304;4.968;2022-07-22T14:03:20;21.71;53.50
9861;DHT22;4969;52.304;4.968;2022-07-22T14:05:46;21.71;54.37
9861;DHT22;4969;52.304;4.968;2022-07-22T14:08:13;21.83;54.42
9861;DHT22;4969;52.304;4.968;2022-07-22T14:10:39;21.72;53.94
9861;DHT22;4969;52.304;4.968;2022-07-22T14:13:06;21.51;54.21
9861;DHT22;4969;52.304;4.968;2022-07-22T14:15:33;21.61;53.54
9861;DHT22;4969;52.304;4.968;2022-07-22T14:18:00;21.61;54.37
9861;DHT22;4969;52.304;4.968;2022-07-22T14:20:28;21.65;54.27
9861;DHT22;4969;52.304;4.968;2022-07-22T14:22:54;21.68;54.02
9861;DHT22;4969;52.304;4.968;2022-07-22T14:25:21;21.50;54.85
9861;DHT22;4969;52.304;4.968;2022-07-22T14:27:48;21.45;54.13
9861;DHT22;4969;52.304;4.968;2022-07-22T14:30:14;21.50;54.66
9861;DHT22;4969;52.304;4.968;2022-07-22T14:32:41;21.51;54.07
9861;DHT22;4969;52.304;4.968;2022-07-22T14:35:09;21.48;54.28
9861;DHT22;4969;52.304;4.968;2022-07-22T14:37:35;21.51;53.71
9861;DHT22;4969;52.304;4.968;2022-07-22T14:40:04;21.57;54.25
9861;DHT22;4969;52.304;4.968;2022-07-22T14:42:31;21.53;53.63
9861;DHT22;4969;52.304;4.968;2022-07-22T14:44:57;21.36;54.34
9861;DHT22;4969;52.304;4.968;2022-07-22T14:47:24;21.44;54.57
9861;DHT22;4969;52.304;4.968;2022-07-22T14:49:52;21.50;54.17
9861;DHT22;4969;52.304;4.968;2022-07-22T14:52:19;21.28;54.01
9861;DHT22;4969;52.304;4.968;2022-07-22T14:54:46;21.23;54.25
9861;DHT22;4969;52.304;4.968;2022-07-22T14:57:13;21.44;54.82
9861;DHT22;4969;52.304;4.968;2022-07-22T14:59:39;21.50;54.16
9861;DHT22;4969;52.304;4.968;2022-07-22T15:02:06;21.53;53.52
9861;DHT22;4969;52.304;4.968;2022-07-22T15:04:32;21.61;54.00
9861;DHT22;4969;52.304;4.968;2022-07-22T15:06:59;21.81;54.53
9861;DHT22;4969;52.304;4.968;2022-07-22T15:09:28;21.96;54.20
9861;DHT22;4969;52.304;4.968;2022-07-22T15:11:55;22.08;53.99
9861;DHT22;4969;52.304;4.968;2022-07-22T15:14:22;22.08;53.12
9861;DHT22;4969;52.304;4.968;2022-07-22T15:16:48;21.91;53.48
9861;DHT22;4969;52.304;4.968;2022-07-22T15:19:15;21.93;53.73
9861;DHT22;4969;52.304;4.968;2022-07-22T15:21:41;21.98;53.03
9861;DHT22;4969;52.304;4.968;2022-07-22T15:24:08;21.86;53.77
9861;DHT22;4969;52.304;4.968;2022-07-22T15:26:36;22.03;53.88
9861;DHT22;4969;52.304;4.968;2022-07-22T15:29:02;22.08;53.62
9861;DHT22;4969;52.304;4.968;2022-07-22T15:31:29;21.83;53.33
9861;DHT22;4969;52.304;4.968;2022-07-22T15:33:57;21.68;53.48
9861;DHT22;4969;52.304;4.968;2022-07-22T15:36:24;21.30;53.35
9861;DHT22;4969;52.304;4.968;2022-07-22T15:38:51;21.33;54.42
9861;DHT22;4969;52.304;4.968;2022-07-22T15:41:20;21.59;54.52
9861;DHT22;4969;52.304;4.968;2022-07-22T15:43:48;21.71;54.49
9861;DHT22;4969;52.304;4.968;2022-07-22T15:46:15;21.83;53.73
9861;DHT22;4969;52.304;4.968;2022-07-22T15:48:42;21.89;54.07
9861;DHT22;4969;52.304;4.968;2022-07-22T15:51:09;21.79;53.62
9861;DHT22;4969;52.304;4.968;2022-07-22T15:53:36;21.85;53.74
9861;DHT22;4969;52.304;4.968;2022-07-22T15:56:03;21.71;54.07
9861;DHT22;4969;52.304;4.968;2022-07-22T15:58:30;21.79;54.22
9861;DHT22;4969;52.304;4.968;2022-07-22T16:01:15;21.93;54.33
9861;DHT22;4969;52.304;4.968;2022-07-22T16:03:42;21.76;53.15
9861;DHT22;4969;52.304;4.968;2022-07-22T16:06:09;21.61;54.11